sensor_id;sensor_type;location;lat;lon;timestamp;temperature;humidity
8008;DHT22;4049;49.468;11.200;2024-03-08T00:01:00;0.60;99.90
8008;DHT22;4049;49.468;11.200;2024-03-08T00:03:27;0.50;99.90
8008;DHT22;4049;49.468;11.200;2024-03-08T00:05:55;0.50;99.90
8008;DHT22;4049;49.468;11.200;2024-03-08T00:08:24;0.50;99.90
8008;DHT22;4049;49.468;11.200;2024-03-08T00:10:51;0.50;99.90
8008;DHT22;4049;49.468;11.200;2024-03-08T00:13:18;0.50;99.90
8008;DHT22;4049;49.468;11.200;2024-03-08T00:15:45;0.50;99.90
8008;DHT22;4049;49.468;11.200;2024-03-08T00:18:13;0.40;99.90
8008;DHT22;4049;49.468;11.200;2024-03-08T00:20:41;0.40;99.90
8008;DHT22;4049;49.468;11.200;2024-03-08T00:23:08;0.40;99.90
8008;DHT22;4049;49.468;11.200;2024-03-08T00:25:37;0.40;99.90
8008;DHT22;4049;49.468;11.200;2024-03-08T00:28:05;0.30;99.90
8008;DHT22;4049;49.468;11.200;2024-03-08T00:33:22;0.30;99.90
8008;DHT22;4049;49.468;11.200;2024-03-08T00:35:54;0.30;99.90
8008;DHT22;4049;49.468;11.200;2024-03-08T00:38:26;0.30;99.90
8008;DHT22;4049;49.468;11.200;2024-03-08T00:41:25;0.30;99.90
8008;DHT22;4049;49.468;11.200;2024-03-08T00:44:02;0.20;99.90
8008;DHT22;4049;49.468;11.200;2024-03-08T00:50:12;0.10;99.90
8008;DHT22;4049;49.468;11.200;2024-03-08T00:52:58;0.10;99.90
8008;DHT22;4049;49.468;11.200;2024-03-08T00:59:21;0.00;99.90
8008;DHT22;4049;49.468;11.200;2024-03-08T01:02:15;-0.10;99.90
8008;DHT22;4049;49.468;11.200;2024-03-08T01:04:56;-0.10;99.90
8008;DHT22;4049;49.468;11.200;2024-03-08T01:07:44;-0.10;99.90
8008;DHT22;4049;49.468;11.200;2024-03-08T01:10:23;0.00;99.90
8008;DHT22;4049;49.468;11.200;2024-03-08T01:13:05;0.00;99.90
8008;DHT22;4049;49.468;11.200;2024-03-08T01:15:45;0.00;99.90
8008;DHT22;4049;49.468;11.200;2024-03-08T01:18:53;0.00;99.90
8008;DHT22;4049;49.468;11.200;2024-03-08T01:21:25;0.10;99.90
8008;DHT22;4049;49.468;11.200;2024-03-08T01:24:49;0.10;99.90
8008;DHT22;4049;49.468;11.200;2024-03-08T01:27:35;0.10;99.90
8008;DHT22;4049;49.468;11.200;2024-03-08T01:30:21;0.10;99.90
8008;DHT22;4049;49.468;11.200;2024-03-08T01:33:40;0.10;99.90
8008;DHT22;4049;49.468;11.200;2024-03-08T01:36:29;0.10;99.90
8008;DHT22;4049;49.468;11.200;2024-03-08T01:39:14;0.10;99.90
8008;DHT22;4049;49.468;11.200;2024-03-08T01:41:53;0.10;99.90
8008;DHT22;4049;49.468;11.200;2024-03-08T01:44:27;0.20;99.90
8008;DHT22;4049;49.468;11.200;2024-03-08T01:47:28;0.20;99.90
8008;DHT22;4049;49.468;11.200;2024-03-08T01:50:29;0.20;99.90
8008;DHT22;4049;49.468;11.200;2024-03-08T01:53:25;0.20;99.90
8008;DHT22;4049;49.468;11.200;2024-03-08T01:56:23;0.20;99.90
8008;DHT22;4049;49.468;11.200;2024-03-08T01:59:17;0.20;99.90
8008;DHT22;4049;49.468;11.200;2024-03-08T02:05:28;0.20;99.90
8008;DHT22;4049;49.468;11.200;2024-03-08T02:08:24;0.20;99.90
8008;DHT22;4049;49.468;11.200;2024-03-08T02:11:10;0.20;99.90
8008;DHT22;4049;49.468;11.200;2024-03-08T02:16:53;0.20;99.90
8008;DHT22;4049;49.468;11.200;2024-03-08T02:19:31;0.10;99.90
8008;DHT22;4049;49.468;11.200;2024-03-08T02:22:32;0.10;99.90
8008;DHT22;4049;49.468;11.200;2024-03-08T02:25:21;0.10;99.90
8008;DHT22;4049;49.468;11.200;2024-03-08T02:28:04;0.10;99.90
8008;DHT22;4049;49.468;11.200;2024-03-08T02:30:46;0.10;99.90
8008;DHT22;4049;49.468;11.200;2024-03-08T02:33:41;0.10;99.90
8008;DHT22;4049;49.468;11.200;2024-03-08T02:36:27;0.10;99.90
8008;DHT22;4049;49.468;11.200;2024-03-08T02:39:32;0.00;99.90
8008;DHT22;4049;49.468;11.200;2024-03-08T02:42:11;0.00;99.90
8008;DHT22;4049;49.468;11.200;2024-03-08T02:44:56;0.00;99.90
8008;DHT22;4049;49.468;11.200;2024-03-08T02:47:56;0.00;99.90
8008;DHT22;4049;49.468;11.200;2024-03-08T02:50:42;0.00;99.90
8008;DHT22;4049;49.468;11.200;2024-03-08T02:53:19;-0.10;99.90
8008;DHT22;4049;49.468;11.200;2024-03-08T02:56:04;-0.10;99.90
8008;DHT22;4049;49.468;11.200;2024-03-08T02:58:54;-0.10;99.90
8008;DHT22;4049;49.468;11.200;2024-03-08T03:01:35;-0.10;99.90
8008;DHT22;4049;49.468;11.200;2024-03-08T03:04:13;-0.10;99.90
8008;DHT22;4049;49.468;11.200;2024-03-08T03:06:45;-0.10;99.90
8008;DHT22;4049;49.468;11.200;2024-03-08T03:09:25;-0.10;99.90
8008;DHT22;4049;49.468;11.200;2024-03-08T03:12:11;-0.10;99.90
8008;DHT22;4049;49.468;11.200;2024-03-08T03:14:58;-0.20;99.90
8008;DHT22;4049;49.468;11.200;2024-03-08T03:17:50;-0.20;99.90
8008;DHT22;4049;49.468;11.200;2024-03-08T03:20:33;-0.20;99.90
8008;DHT22;4049;49.468;11.200;2024-03-08T03:23:09;-0.20;99.90
8008;DHT22;4049;49.468;11.200;2024-03-08T03:25:48;-0.20;99.90
8008;DHT22;4049;49.468;11.200;2024-03-08T03:28:38;-0.20;99.90
8008;DHT22;4049;49.468;11.200;2024-03-08T03:31:55;-0.20;99.90
8008;DHT22;4049;49.468;11.200;2024-03-08T03:34:35;-0.30;99.90
8008;DHT22;4049;49.468;11.200;2024-03-08T03:37:18;-0.30;99.90
8008;DHT22;4049;49.468;11.200;2024-03-08T03:39:57;-0.30;99.90
8008;DHT22;4049;49.468;11.200;2024-03-08T03:42:38;-0.40;99.90
8008;DHT22;4049;49.468;11.200;2024-03-08T03:45:23;-0.40;99.90
8008;DHT22;4049;49.468;11.200;2024-03-08T03:48:21;-0.40;99.90
8008;DHT22;4049;49.468;11.200;2024-03-08T03:50:58;-0.40;99.90
8008;DHT22;4049;49.468;11.200;2024-03-08T03:54:02;-0.40;99.90
8008;DHT22;4049;49.468;11.200;2024-03-08T04:00:27;-0.40;99.90
8008;DHT22;4049;49.468;11.200;2024-03-08T04:03:04;-0.40;99.90
8008;DHT22;4049;49.468;11.200;2024-03-08T04:05:44;-0.40;99.90
8008;DHT22;4049;49.468;11.200;2024-03-08T04:08:48;-0.40;99.90
8008;DHT22;4049;49.468;11.200;2024-03-08T04:11:28;-0.40;99.90
8008;DHT22;4049;49.468;11.200;2024-03-08T04:14:08;-0.40;99.90
8008;DHT22;4049;49.468;11.200;2024-03-08T04:16:49;-0.40;99.90
8008;DHT22;4049;49.468;11.200;2024-03-08T04:19:37;-0.40;99.90
8008;DHT22;4049;49.468;11.200;2024-03-08T04:22:09;-0.40;99.90
8008;DHT22;4049;49.468;11.200;2024-03-08T04:24:47;-0.50;99.90
8008;DHT22;4049;49.468;11.200;2024-03-08T04:27:23;-0.50;99.90
8008;DHT22;4049;49.468;11.200;2024-03-08T04:30:07;-0.50;99.90
8008;DHT22;4049;49.468;11.200;2024-03-08T04:32:53;-0.50;99.90
8008;DHT22;4049;49.468;11.200;2024-03-08T04:35:38;-0.50;99.90
8008;DHT22;4049;49.468;11.200;2024-03-08T04:38:09;-0.50;99.90
8008;DHT22;4049;49.468;11.200;2024-03-08T04:41:18;-0.50;99.90
8008;DHT22;4049;49.468;11.200;2024-03-08T04:43:55;-0.50;99.90
8008;DHT22;4049;49.468;11.200;2024-03-08T04:46:29;-0.50;99.90
8008;DHT22;4049;49.468;11.200;2024-03-08T04:49:12;-0.60;99.90
8008;DHT22;4049;49.468;11.200;2024-03-08T04:51:49;-0.50;99.90
8008;DHT22;4049;49.468;11.200;2024-03-08T04:54:30;-0.60;99.90
8008;DHT22;4049;49.468;11.200;2024-03-08T04:57:04;-0.60;99.90
8008;DHT22;4049;49.468;11.200;2024-03-08T04:59:40;-0.60;99.90
8008;DHT22;4049;49.468;11.200;2024-03-08T05:02:12;-0.60;99.90
8008;DHT22;4049;49.468;11.200;2024-03-08T05:04:51;-0.50;99.90
8008;DHT22;4049;49.468;11.200;2024-03-08T05:07:37;-0.50;99.90
8008;DHT22;4049;49.468;11.200;2024-03-08T05:10:11;-0.50;99.90
8008;DHT22;4049;49.468;11.200;2024-03-08T05:13:00;-0.50;99.90
8008;DHT22;4049;49.468;11.200;2024-03-08T05:15:47;-0.50;99.90
8008;DHT22;4049;49.468;11.200;2024-03-08T05:18:20;-0.40;99.90
8008;DHT22;4049;49.468;11.200;2024-03-08T05:21:04;-0.40;99.90
8008;DHT22;4049;49.468;11.200;2024-03-08T05:23:55;-0.40;99.90
8008;DHT22;4049;49.468;11.200;2024-03-08T05:26:31;-0.40;99.90
8008;DHT22;4049;49.468;11.200;2024-03-08T05:29:31;-0.40;99.90
8008;DHT22;4049;49.468;11.200;2024-03-08T05:35:06;-0.30;99.90
8008;DHT22;4049;49.468;11.200;2024-03-08T05:37:48;-0.30;99.90
8008;DHT22;4049;49.468;11.200;2024-03-08T05:40:24;-0.30;99.90
8008;DHT22;4049;49.468;11.200;2024-03-08T05:43:05;-0.30;99.90
8008;DHT22;4049;49.468;11.200;2024-03-08T05:46:00;-0.30;99.90
8008;DHT22;4049;49.468;11.200;2024-03-08T05:48:43;-0.30;99.90
8008;DHT22;4049;49.468;11.200;2024-03-08T05:51:20;-0.30;99.90
8008;DHT22;4049;49.468;11.200;2024-03-08T05:53:58;-0.30;99.90
8008;DHT22;4049;49.468;11.200;2024-03-08T05:56:37;-0.20;99.90
8008;DHT22;4049;49.468;11.200;2024-03-08T05:59:13;-0.20;99.90
8008;DHT22;4049;49.468;11.200;2024-03-08T06:01:44;-0.20;99.90
8008;DHT22;4049;49.468;11.200;2024-03-08T06:04:18;-0.20;99.90
8008;DHT22;4049;49.468;11.200;2024-03-08T06:07:03;-0.20;99.90
8008;DHT22;4049;49.468;11.200;2024-03-08T06:09:35;-0.20;99.90
8008;DHT22;4049;49.468;11.200;2024-03-08T06:12:05;-0.20;99.90
8008;DHT22;4049;49.468;11.200;2024-03-08T06:14:37;-0.20;99.90
8008;DHT22;4049;49.468;11.200;2024-03-08T06:17:17;-0.20;99.90
8008;DHT22;4049;49.468;11.200;2024-03-08T06:19:56;-0.20;99.90
8008;DHT22;4049;49.468;11.200;2024-03-08T06:22:31;-0.10;99.90
8008;DHT22;4049;49.468;11.200;2024-03-08T06:25:03;-0.10;99.90
8008;DHT22;4049;49.468;11.200;2024-03-08T06:27:37;-0.10;99.90
8008;DHT22;4049;49.468;11.200;2024-03-08T06:30:35;-0.10;99.90
8008;DHT22;4049;49.468;11.200;2024-03-08T06:33:10;-0.10;99.90
8008;DHT22;4049;49.468;11.200;2024-03-08T06:35:38;0.00;99.90
8008;DHT22;4049;49.468;11.200;2024-03-08T06:38:06;0.00;99.90
8008;DHT22;4049;49.468;11.200;2024-03-08T06:40:42;0.00;99.90
8008;DHT22;4049;49.468;11.200;2024-03-08T06:43:11;0.00;99.90
8008;DHT22;4049;49.468;11.200;2024-03-08T06:45:42;0.10;99.90
8008;DHT22;4049;49.468;11.200;2024-03-08T06:48:17;0.10;99.90
8008;DHT22;4049;49.468;11.200;2024-03-08T06:50:48;0.10;99.90
8008;DHT22;4049;49.468;11.200;2024-03-08T06:53:19;0.20;99.90
8008;DHT22;4049;49.468;11.200;2024-03-08T06:55:53;0.20;99.90
8008;DHT22;4049;49.468;11.200;2024-03-08T06:58:23;0.30;99.90
8008;DHT22;4049;49.468;11.200;2024-03-08T07:00:50;0.30;99.90
8008;DHT22;4049;49.468;11.200;2024-03-08T07:03:19;0.40;99.90
8008;DHT22;4049;49.468;11.200;2024-03-08T07:05:51;0.40;99.90
8008;DHT22;4049;49.468;11.200;2024-03-08T07:08:19;0.50;99.90
8008;DHT22;4049;49.468;11.200;2024-03-08T07:10:48;0.50;99.90
8008;DHT22;4049;49.468;11.200;2024-03-08T07:13:15;0.60;99.90
8008;DHT22;4049;49.468;11.200;2024-03-08T07:15:44;0.60;99.90
8008;DHT22;4049;49.468;11.200;2024-03-08T07:18:12;0.70;99.90
8008;DHT22;4049;49.468;11.200;2024-03-08T07:20:40;0.70;99.90
8008;DHT22;4049;49.468;11.200;2024-03-08T07:23:24;0.80;99.90
8008;DHT22;4049;49.468;11.200;2024-03-08T07:26:08;0.90;99.90
8008;DHT22;4049;49.468;11.200;2024-03-08T07:28:36;1.00;99.90
8008;DHT22;4049;49.468;11.200;2024-03-08T07:31:07;1.10;99.90
8008;DHT22;4049;49.468;11.200;2024-03-08T07:33:46;1.10;99.90
8008;DHT22;4049;49.468;11.200;2024-03-08T07:36:16;1.20;99.90
8008;DHT22;4049;49.468;11.200;2024-03-08T07:38:42;1.20;99.90
8008;DHT22;4049;49.468;11.200;2024-03-08T07:41:11;1.30;99.90
8008;DHT22;4049;49.468;11.200;2024-03-08T07:43:38;1.30;99.90
8008;DHT22;4049;49.468;11.200;2024-03-08T07:46:06;1.40;99.90
8008;DHT22;4049;49.468;11.200;2024-03-08T07:48:35;1.40;99.90
8008;DHT22;4049;49.468;11.200;2024-03-08T07:51:04;1.50;99.90
8008;DHT22;4049;49.468;11.200;2024-03-08T07:53:30;1.60;99.90
8008;DHT22;4049;49.468;11.200;2024-03-08T07:55:57;1.70;99.90
8008;DHT22;4049;49.468;11.200;2024-03-08T07:58:25;1.70;99.90
8008;DHT22;4049;49.468;11.200;2024-03-08T08:00:52;1.80;99.90
8008;DHT22;4049;49.468;11.200;2024-03-08T08:03:21;1.90;99.90
8008;DHT22;4049;49.468;11.200;2024-03-08T08:05:48;1.90;99.90
8008;DHT22;4049;49.468;11.200;2024-03-08T08:08:15;2.00;99.90
8008;DHT22;4049;49.468;11.200;2024-03-08T08:10:42;2.10;99.90
8008;DHT22;4049;49.468;11.200;2024-03-08T08:13:09;2.10;99.90
8008;DHT22;4049;49.468;11.200;2024-03-08T08:15:36;2.20;99.90
8008;DHT22;4049;49.468;11.200;2024-03-08T08:18:03;2.30;99.90
8008;DHT22;4049;49.468;11.200;2024-03-08T08:20:32;2.40;99.90
8008;DHT22;4049;49.468;11.200;2024-03-08T08:22:59;2.40;99.90
8008;DHT22;4049;49.468;11.200;2024-03-08T08:25:26;2.50;99.90
8008;DHT22;4049;49.468;11.200;2024-03-08T08:27:53;2.70;99.90
8008;DHT22;4049;49.468;11.200;2024-03-08T08:30:19;2.70;99.90
8008;DHT22;4049;49.468;11.200;2024-03-08T08:32:46;2.80;99.90
8008;DHT22;4049;49.468;11.200;2024-03-08T08:35:14;2.90;99.90
8008;DHT22;4049;49.468;11.200;2024-03-08T08:37:42;2.90;99.90
8008;DHT22;4049;49.468;11.200;2024-03-08T08:40:10;3.00;99.90
8008;DHT22;4049;49.468;11.200;2024-03-08T08:42:40;3.10;99.90
8008;DHT22;4049;49.468;11.200;2024-03-08T08:45:08;3.20;99.90
8008;DHT22;4049;49.468;11.200;2024-03-08T08:47:35;3.30;99.90
8008;DHT22;4049;49.468;11.200;2024-03-08T08:50:02;3.40;99.90
8008;DHT22;4049;49.468;11.200;2024-03-08T08:52:30;3.50;99.90
8008;DHT22;4049;49.468;11.200;2024-03-08T08:54:58;3.60;99.90
8008;DHT22;4049;49.468;11.200;2024-03-08T08:57:25;3.70;99.90
8008;DHT22;4049;49.468;11.200;2024-03-08T08:59:52;3.80;99.90
8008;DHT22;4049;49.468;11.200;2024-03-08T09:02:20;3.80;99.90
8008;DHT22;4049;49.468;11.200;2024-03-08T09:04:47;3.90;99.90
8008;DHT22;4049;49.468;11.200;2024-03-08T09:07:14;4.00;99.90
8008;DHT22;4049;49.468;11.200;2024-03-08T09:09:42;4.10;99.90
8008;DHT22;4049;49.468;11.200;2024-03-08T09:12:11;4.20;99.90
8008;DHT22;4049;49.468;11.200;2024-03-08T09:14:39;4.40;99.90
8008;DHT22;4049;49.468;11.200;2024-03-08T09:17:06;4.50;99.90
8008;DHT22;4049;49.468;11.200;2024-03-08T09:19:34;4.60;99.90
8008;DHT22;4049;49.468;11.200;2024-03-08T09:22:01;4.70;99.90
8008;DHT22;4049;49.468;11.200;2024-03-08T09:24:29;4.80;99.90
8008;DHT22;4049;49.468;11.200;2024-03-08T09:26:56;4.90;99.90
8008;DHT22;4049;49.468;11.200;2024-03-08T09:29:25;5.00;99.90
8008;DHT22;4049;49.468;11.200;2024-03-08T09:31:52;5.20;99.90
8008;DHT22;4049;49.468;11.200;2024-03-08T09:34:19;5.20;99.90
8008;DHT22;4049;49.468;11.200;2024-03-08T09:36:46;5.30;99.90
8008;DHT22;4049;49.468;11.200;2024-03-08T09:39:13;5.40;99.90
8008;DHT22;4049;49.468;11.200;2024-03-08T09:41:42;5.40;99.90
8008;DHT22;4049;49.468;11.200;2024-03-08T09:44:10;5.50;99.90
8008;DHT22;4049;49.468;11.200;2024-03-08T09:46:39;5.60;99.90
8008;DHT22;4049;49.468;11.200;2024-03-08T09:49:06;5.60;99.90
8008;DHT22;4049;49.468;11.200;2024-03-08T09:51:34;5.70;99.90
8008;DHT22;4049;49.468;11.200;2024-03-08T09:54:01;5.80;99.90
8008;DHT22;4049;49.468;11.200;2024-03-08T09:56:31;5.80;99.90
8008;DHT22;4049;49.468;11.200;2024-03-08T09:58:58;5.90;99.90
8008;DHT22;4049;49.468;11.200;2024-03-08T10:01:40;6.00;99.90
8008;DHT22;4049;49.468;11.200;2024-03-08T10:04:07;6.10;99.90
8008;DHT22;4049;49.468;11.200;2024-03-08T10:06:35;6.20;99.90
8008;DHT22;4049;49.468;11.200;2024-03-08T10:09:03;6.20;99.90
8008;DHT22;4049;49.468;11.200;2024-03-08T10:11:31;6.40;99.90
8008;DHT22;4049;49.468;11.200;2024-03-08T10:14:00;6.50;99.90
8008;DHT22;4049;49.468;11.200;2024-03-08T10:16:27;6.50;99.90
8008;DHT22;4049;49.468;11.200;2024-03-08T10:18:56;6.70;99.90
8008;DHT22;4049;49.468;11.200;2024-03-08T10:21:23;6.70;99.90
8008;DHT22;4049;49.468;11.200;2024-03-08T10:23:51;6.90;99.90
8008;DHT22;4049;49.468;11.200;2024-03-08T10:26:18;7.00;99.90
8008;DHT22;4049;49.468;11.200;2024-03-08T10:28:47;7.10;99.90
8008;DHT22;4049;49.468;11.200;2024-03-08T10:31:14;7.20;99.90
8008;DHT22;4049;49.468;11.200;2024-03-08T10:33:41;7.30;99.90
8008;DHT22;4049;49.468;11.200;2024-03-08T10:36:12;7.50;99.90
8008;DHT22;4049;49.468;11.200;2024-03-08T10:38:41;7.50;99.90
8008;DHT22;4049;49.468;11.200;2024-03-08T10:41:09;7.70;99.90
8008;DHT22;4049;49.468;11.200;2024-03-08T10:44:01;7.80;99.90
8008;DHT22;4049;49.468;11.200;2024-03-08T10:46:42;8.00;99.90
8008;DHT22;4049;49.468;11.200;2024-03-08T10:49:17;8.20;99.90
8008;DHT22;4049;49.468;11.200;2024-03-08T10:51:50;8.20;99.90
8008;DHT22;4049;49.468;11.200;2024-03-08T10:54:18;8.40;99.90
8008;DHT22;4049;49.468;11.200;2024-03-08T10:56:47;8.60;99.90
8008;DHT22;4049;49.468;11.200;2024-03-08T10:59:15;8.70;99.90
8008;DHT22;4049;49.468;11.200;2024-03-08T11:01:42;8.90;99.90
8008;DHT22;4049;49.468;11.200;2024-03-08T11:04:09;9.10;99.90
8008;DHT22;4049;49.468;11.200;2024-03-08T11:06:42;9.20;99.90
8008;DHT22;4049;49.468;11.200;2024-03-08T11:09:28;9.40;99.90
8008;DHT22;4049;49.468;11.200;2024-03-08T11:12:19;9.50;99.90
8008;DHT22;4049;49.468;11.200;2024-03-08T11:14:47;9.70;99.90
8008;DHT22;4049;49.468;11.200;2024-03-08T11:17:15;9.80;99.90
8008;DHT22;4049;49.468;11.200;2024-03-08T11:19:46;10.00;99.90
8008;DHT22;4049;49.468;11.200;2024-03-08T11:22:26;10.20;99.90
8008;DHT22;4049;49.468;11.200;2024-03-08T11:25:01;10.30;99.90
8008;DHT22;4049;49.468;11.200;2024-03-08T11:27:29;10.40;99.90
8008;DHT22;4049;49.468;11.200;2024-03-08T11:30:00;10.50;99.90
8008;DHT22;4049;49.468;11.200;2024-03-08T11:32:37;10.60;99.30
8008;DHT22;4049;49.468;11.200;2024-03-08T11:35:07;10.60;99.90
8008;DHT22;4049;49.468;11.200;2024-03-08T11:37:35;10.70;98.90
8008;DHT22;4049;49.468;11.200;2024-03-08T11:40:12;10.80;97.80
8008;DHT22;4049;49.468;11.200;2024-03-08T11:42:45;10.90;96.30
8008;DHT22;4049;49.468;11.200;2024-03-08T11:45:13;11.00;95.20
8008;DHT22;4049;49.468;11.200;2024-03-08T11:47:42;11.00;93.10
8008;DHT22;4049;49.468;11.200;2024-03-08T11:50:11;11.10;91.00
8008;DHT22;4049;49.468;11.200;2024-03-08T11:52:38;11.10;91.10
8008;DHT22;4049;49.468;11.200;2024-03-08T11:55:07;11.20;94.50
8008;DHT22;4049;49.468;11.200;2024-03-08T11:57:34;11.30;94.40
8008;DHT22;4049;49.468;11.200;2024-03-08T12:00:03;11.40;94.70
8008;DHT22;4049;49.468;11.200;2024-03-08T12:02:32;11.60;91.80
8008;DHT22;4049;49.468;11.200;2024-03-08T12:05:01;11.70;93.30
8008;DHT22;4049;49.468;11.200;2024-03-08T12:07:29;11.80;93.80
8008;DHT22;4049;49.468;11.200;2024-03-08T12:10:18;11.90;91.80
8008;DHT22;4049;49.468;11.200;2024-03-08T12:12:47;12.00;90.20
8008;DHT22;4049;49.468;11.200;2024-03-08T12:15:16;12.00;85.20
8008;DHT22;4049;49.468;11.200;2024-03-08T12:17:44;12.10;89.80
8008;DHT22;4049;49.468;11.200;2024-03-08T12:20:16;12.10;86.60
8008;DHT22;4049;49.468;11.200;2024-03-08T12:22:44;12.20;90.80
8008;DHT22;4049;49.468;11.200;2024-03-08T12:25:11;12.20;91.70
8008;DHT22;4049;49.468;11.200;2024-03-08T12:27:41;12.30;92.20
8008;DHT22;4049;49.468;11.200;2024-03-08T12:30:24;12.30;91.80
8008;DHT22;4049;49.468;11.200;2024-03-08T12:32:54;12.40;90.30
8008;DHT22;4049;49.468;11.200;2024-03-08T12:35:23;12.40;90.40
8008;DHT22;4049;49.468;11.200;2024-03-08T12:37:52;12.50;93.80
8008;DHT22;4049;49.468;11.200;2024-03-08T12:40:25;12.60;92.10
8008;DHT22;4049;49.468;11.200;2024-03-08T12:42:54;12.60;90.10
8008;DHT22;4049;49.468;11.200;2024-03-08T12:45:21;12.70;82.10
8008;DHT22;4049;49.468;11.200;2024-03-08T12:47:49;12.70;89.00
8008;DHT22;4049;49.468;11.200;2024-03-08T12:50:17;12.70;90.30
8008;DHT22;4049;49.468;11.200;2024-03-08T12:52:44;12.70;88.40
8008;DHT22;4049;49.468;11.200;2024-03-08T12:55:10;12.80;90.80
8008;DHT22;4049;49.468;11.200;2024-03-08T12:57:38;12.80;90.70
8008;DHT22;4049;49.468;11.200;2024-03-08T13:00:07;12.90;89.00
8008;DHT22;4049;49.468;11.200;2024-03-08T13:02:39;12.90;85.30
8008;DHT22;4049;49.468;11.200;2024-03-08T13:05:06;12.90;85.80
8008;DHT22;4049;49.468;11.200;2024-03-08T13:07:35;12.90;83.60
8008;DHT22;4049;49.468;11.200;2024-03-08T13:10:04;13.00;87.40
8008;DHT22;4049;49.468;11.200;2024-03-08T13:12:31;13.10;82.00
8008;DHT22;4049;49.468;11.200;2024-03-08T13:15:01;13.20;81.70
8008;DHT22;4049;49.468;11.200;2024-03-08T13:17:31;13.20;83.80
8008;DHT22;4049;49.468;11.200;2024-03-08T13:19:58;13.30;79.20
8008;DHT22;4049;49.468;11.200;2024-03-08T13:22:25;13.40;79.40
8008;DHT22;4049;49.468;11.200;2024-03-08T13:24:53;13.50;77.50
8008;DHT22;4049;49.468;11.200;2024-03-08T13:27:20;13.60;78.90
8008;DHT22;4049;49.468;11.200;2024-03-08T13:29:47;13.70;72.50
8008;DHT22;4049;49.468;11.200;2024-03-08T13:32:15;13.70;77.90
8008;DHT22;4049;49.468;11.200;2024-03-08T13:34:44;13.80;79.20
8008;DHT22;4049;49.468;11.200;2024-03-08T13:37:13;13.90;76.50
8008;DHT22;4049;49.468;11.200;2024-03-08T13:39:41;13.90;74.70
8008;DHT22;4049;49.468;11.200;2024-03-08T13:42:10;13.90;71.40
8008;DHT22;4049;49.468;11.200;2024-03-08T13:44:39;14.00;72.10
8008;DHT22;4049;49.468;11.200;2024-03-08T13:47:07;14.00;65.30
8008;DHT22;4049;49.468;11.200;2024-03-08T13:49:33;14.10;67.10
8008;DHT22;4049;49.468;11.200;2024-03-08T13:52:03;14.10;63.90
8008;DHT22;4049;49.468;11.200;2024-03-08T13:54:30;14.10;66.50
8008;DHT22;4049;49.468;11.200;2024-03-08T13:56:58;14.10;66.60
8008;DHT22;4049;49.468;11.200;2024-03-08T13:59:24;14.10;63.40
8008;DHT22;4049;49.468;11.200;2024-03-08T14:01:55;14.30;65.40
8008;DHT22;4049;49.468;11.200;2024-03-08T14:04:23;14.40;62.10
8008;DHT22;4049;49.468;11.200;2024-03-08T14:06:53;14.50;61.80
8008;DHT22;4049;49.468;11.200;2024-03-08T14:09:24;14.50;60.10
8008;DHT22;4049;49.468;11.200;2024-03-08T14:11:52;14.60;62.20
8008;DHT22;4049;49.468;11.200;2024-03-08T14:14:20;14.70;59.70
8008;DHT22;4049;49.468;11.200;2024-03-08T14:16:48;14.80;58.90
8008;DHT22;4049;49.468;11.200;2024-03-08T14:19:18;14.90;58.30
8008;DHT22;4049;49.468;11.200;2024-03-08T14:21:45;14.90;58.40
8008;DHT22;4049;49.468;11.200;2024-03-08T14:24:13;15.00;57.10
8008;DHT22;4049;49.468;11.200;2024-03-08T14:26:42;15.10;58.80
8008;DHT22;4049;49.468;11.200;2024-03-08T14:29:09;15.20;55.60
8008;DHT22;4049;49.468;11.200;2024-03-08T14:31:36;15.30;55.70
8008;DHT22;4049;49.468;11.200;2024-03-08T14:34:03;15.30;53.40
8008;DHT22;4049;49.468;11.200;2024-03-08T14:36:30;15.20;54.90
8008;DHT22;4049;49.468;11.200;2024-03-08T14:38:57;15.20;55.00
8008;DHT22;4049;49.468;11.200;2024-03-08T14:41:24;15.20;55.30
8008;DHT22;4049;49.468;11.200;2024-03-08T14:43:53;15.20;55.00
8008;DHT22;4049;49.468;11.200;2024-03-08T14:46:20;15.20;55.10
8008;DHT22;4049;49.468;11.200;2024-03-08T14:48:48;15.20;54.50
8008;DHT22;4049;49.468;11.200;2024-03-08T14:51:17;15.20;54.40
8008;DHT22;4049;49.468;11.200;2024-03-08T14:53:47;15.20;54.30
8008;DHT22;4049;49.468;11.200;2024-03-08T14:56:15;15.10;54.40
8008;DHT22;4049;49.468;11.200;2024-03-08T14:58:43;15.00;54.60
8008;DHT22;4049;49.468;11.200;2024-03-08T15:01:11;15.00;54.80
8008;DHT22;4049;49.468;11.200;2024-03-08T15:03:39;14.90;56.20
8008;DHT22;4049;49.468;11.200;2024-03-08T15:06:06;14.80;55.40
8008;DHT22;4049;49.468;11.200;2024-03-08T15:08:35;14.70;54.70
8008;DHT22;4049;49.468;11.200;2024-03-08T15:11:02;14.60;56.20
8008;DHT22;4049;49.468;11.200;2024-03-08T15:13:31;14.50;57.00
8008;DHT22;4049;49.468;11.200;2024-03-08T15:16:05;14.40;56.90
8008;DHT22;4049;49.468;11.200;2024-03-08T15:18:35;14.30;56.90
8008;DHT22;4049;49.468;11.200;2024-03-08T15:21:04;14.20;56.10
8008;DHT22;4049;49.468;11.200;2024-03-08T15:23:33;14.10;56.80
8008;DHT22;4049;49.468;11.200;2024-03-08T15:26:00;13.90;58.20
8008;DHT22;4049;49.468;11.200;2024-03-08T15:28:28;13.70;58.00
8008;DHT22;4049;49.468;11.200;2024-03-08T15:31:02;13.50;59.10
8008;DHT22;4049;49.468;11.200;2024-03-08T15:33:33;13.40;60.00
8008;DHT22;4049;49.468;11.200;2024-03-08T15:36:05;13.30;60.70
8008;DHT22;4049;49.468;11.200;2024-03-08T15:38:35;13.20;61.50
8008;DHT22;4049;49.468;11.200;2024-03-08T15:41:02;13.20;63.80
8008;DHT22;4049;49.468;11.200;2024-03-08T15:43:32;13.10;64.70
8008;DHT22;4049;49.468;11.200;2024-03-08T15:46:00;13.10;64.70
8008;DHT22;4049;49.468;11.200;2024-03-08T15:48:30;13.00;65.00
8008;DHT22;4049;49.468;11.200;2024-03-08T15:50:59;12.90;66.90
8008;DHT22;4049;49.468;11.200;2024-03-08T15:53:30;12.80;67.40
8008;DHT22;4049;49.468;11.200;2024-03-08T15:55:57;12.70;66.70
8008;DHT22;4049;49.468;11.200;2024-03-08T15:58:25;12.50;67.70
8008;DHT22;4049;49.468;11.200;2024-03-08T16:00:52;12.40;69.10
8008;DHT22;4049;49.468;11.200;2024-03-08T16:03:19;12.30;69.00
8008;DHT22;4049;49.468;11.200;2024-03-08T16:05:46;12.20;70.40
8008;DHT22;4049;49.468;11.200;2024-03-08T16:08:16;12.10;72.00
8008;DHT22;4049;49.468;11.200;2024-03-08T16:10:44;12.00;72.10
8008;DHT22;4049;49.468;11.200;2024-03-08T16:13:14;11.90;74.10
8008;DHT22;4049;49.468;11.200;2024-03-08T16:15:43;11.80;75.30
8008;DHT22;4049;49.468;11.200;2024-03-08T16:18:11;11.70;77.20
8008;DHT22;4049;49.468;11.200;2024-03-08T16:20:38;11.60;77.70
8008;DHT22;4049;49.468;11.200;2024-03-08T16:23:05;11.50;79.50
8008;DHT22;4049;49.468;11.200;2024-03-08T16:25:33;11.50;80.40
8008;DHT22;4049;49.468;11.200;2024-03-08T16:28:01;11.40;80.90
8008;DHT22;4049;49.468;11.200;2024-03-08T16:30:28;11.30;81.70
8008;DHT22;4049;49.468;11.200;2024-03-08T16:32:58;11.20;81.70
8008;DHT22;4049;49.468;11.200;2024-03-08T16:35:24;11.10;83.80
8008;DHT22;4049;49.468;11.200;2024-03-08T16:37:51;11.00;84.10
8008;DHT22;4049;49.468;11.200;2024-03-08T16:40:18;10.90;85.60
8008;DHT22;4049;49.468;11.200;2024-03-08T16:42:47;10.80;83.90
8008;DHT22;4049;49.468;11.200;2024-03-08T16:45:17;10.60;86.10
8008;DHT22;4049;49.468;11.200;2024-03-08T16:47:44;10.50;86.70
8008;DHT22;4049;49.468;11.200;2024-03-08T16:50:11;10.40;88.50
8008;DHT22;4049;49.468;11.200;2024-03-08T16:52:40;10.30;88.90
8008;DHT22;4049;49.468;11.200;2024-03-08T16:55:13;10.20;90.00
8008;DHT22;4049;49.468;11.200;2024-03-08T16:57:44;10.10;90.50